Latest Weather Observations for Norah Head

IDN60801

Issued at 2:32 pm EST Monday 30 May 2016 (issued every 30 minutes, with the page automatically refreshed every 10 minutes)

About weather observations | Map of weather stations | Latest weather observations for NSW | Other Formats
Station Details ID: 061366 Name: NORAH HEAD AWS Lat: -33.28 Lon: 151.58 Height: 18.8 m
Data from the previous 72 hours. | See also: Recent months at Norah Head
Date/Time
EST
Temp
°C
App
Temp
°C
Dew
Point
Rel
Hum
%
Delta-T
°C
Wind Press
QNH
hPa
Press
MSL
hPa
Rain
since 9 am
mm
Dir
 
Spd
km/h
Gust
km/h
Spd
kts
Gust
kts
30/02:30pm 16.9 14.4 6.7 51 5.0 SSW 9 19 5 10 1023.8 1023.7 0.0
30/02:00pm 17.1 14.0 7.2 52 4.9 SSW 13 20 7 11 1023.8 1023.7 0.0
30/01:30pm 16.8 13.2 6.9 52 4.9 SSW 15 22 8 12 1023.8 1023.7 0.0
30/01:00pm 16.3 12.5 5.9 50 5.0 SSW 15 20 8 11 1023.9 1023.8 0.0
30/12:30pm 15.8 12.7 5.7 51 4.8 SW 11 17 6 9 1024.1 1024.0 0.0
30/12:00pm 16.0 13.8 6.4 53 4.7 WSW 7 17 4 9 1024.4 1024.4 0.0
30/11:30am 15.7 13.1 6.2 53 4.6 WSW 9 15 5 8 1024.8 1024.8 0.0
30/11:00am 15.3 12.3 6.1 54 4.4 W 11 22 6 12 1025.2 1025.2 0.0
30/10:30am 14.1 11.2 4.7 53 4.4 W 9 19 5 10 1025.3 1025.3 0.0
30/10:00am 13.5 10.2 4.4 54 4.1 W 11 20 6 11 1025.4 1025.4 0.0
30/09:30am 12.6 9.6 4.3 57 3.8 W 9 20 5 11 1025.3 1025.3 0.0
30/09:00am 11.4 7.9 3.7 59 3.4 W 11 20 6 11 1025.1 1025.1 0.0
30/08:30am 10.2 6.2 3.0 61 3.1 W 13 20 7 11 1024.8 1024.8 0.0
30/08:00am 9.1 5.5 2.9 65 2.6 WNW 11 17 6 9 1024.4 1024.4 0.0
30/07:30am 7.9 5.1 3.2 72 2.0 WNW 7 15 4 8 1024.1 1024.0 0.0
30/07:00am 7.4 4.8 3.1 74 1.8 WNW 6 11 3 6 1023.9 1023.8 0.0
30/06:30am 7.6 4.4 2.9 72 2.0 WNW 9 17 5 9 1023.3 1023.2 0.0
30/06:00am 7.6 4.3 2.3 69 2.2 WNW 9 19 5 10 1023.0 1022.9 0.0
30/05:30am 7.5 4.8 2.8 72 2.0 WNW 6 11 3 6 1022.7 1022.6 0.0
30/05:00am 7.7 4.8 2.4 69 2.2 WNW 7 17 4 9 1022.4 1022.3 0.0
30/04:30am 8.1 4.9 3.2 71 2.1 WNW 9 15 5 8 1022.0 1021.9 0.0
30/04:00am 8.3 4.8 3.4 71 2.1 WNW 11 17 6 9 1021.7 1021.6 0.0
30/03:30am 8.6 5.5 3.6 71 2.2 W 9 15 5 8 1021.8 1021.7 0.0
30/03:00am 8.7 5.6 3.7 71 2.2 W 9 13 5 7 1021.7 1021.6 0.0
30/02:30am 9.0 5.9 3.6 69 2.3 W 9 13 5 7 1021.6 1021.5 0.0
30/02:00am 9.3 6.5 3.3 66 2.6 W 7 11 4 6 1021.5 1021.4 0.0
30/01:30am 9.8 6.1 2.6 61 3.1 W 11 15 6 8 1021.2 1021.1 0.0
30/01:00am 10.1 6.5 3.2 62 3.0 WNW 11 17 6 9 1021.2 1021.1 0.0
30/12:30am 10.3 7.1 3.3 62 3.0 WNW 9 15 5 8 1021.0 1020.9 0.0
30/12:00am 10.7 7.2 3.3 60 3.2 W 11 15 6 8 1020.9 1020.8 0.0
 
Date/Time
EST
Temp
°C
App
Temp
°C
Dew
Point
Rel
Hum
%
Delta-T
°C
Wind Press
QNH
hPa
Press
MSL
hPa
Rain
since 9 am
mm
Dir
 
Spd
km/h
Gust
km/h
Spd
kts
Gust
kts
29/11:30pm 11.2 7.4 4.0 61 3.2 W 13 20 7 11 1020.7 1020.6 0.0
29/11:00pm 10.9 7.0 3.5 60 3.2 W 13 19 7 10 1020.7 1020.6 0.0
29/10:30pm 11.1 7.3 3.9 61 3.2 W 13 19 7 10 1020.6 1020.5 0.0
29/10:00pm 11.5 7.2 3.0 56 3.7 W 15 19 8 10 1020.4 1020.3 0.0
29/09:30pm 11.4 6.8 3.7 59 3.4 W 17 22 9 12 1020.3 1020.2 0.0
29/09:00pm 12.2 8.0 3.9 57 3.7 WNW 15 22 8 12 1020.1 1020.0 0.0
29/08:30pm 12.3 9.2 3.8 56 3.8 WNW 9 17 5 9 1019.8 1019.7 0.0
29/08:00pm 12.3 9.6 5.7 64 3.1 WNW 9 15 5 8 1019.6 1019.5 0.0
29/07:30pm 13.3 11.2 6.6 64 3.2 NW 7 11 4 6 1019.2 1019.1 0.0
29/07:00pm 13.7 11.3 6.8 63 3.3 NNW 9 13 5 7 1018.9 1018.8 0.0
29/06:30pm 14.6 11.1 7.2 61 3.6 N 15 19 8 10 1018.5 1018.4 0.0
29/06:00pm 15.5 13.8 2.0 40 6.0 CALM 0 0 0 0 1018.1 1018.0 0.0
29/05:30pm 16.1 14.7 3.5 43 5.8 CALM 0 2 0 1 1018.0 1017.9 0.0
29/05:00pm 16.0 13.8 3.4 43 5.8 SSW 4 6 2 3 1017.6 1017.5 0.0
29/04:30pm 15.9 13.2 2.7 41 6.0 SW 6 7 3 4 1017.3 1017.2 0.0
29/04:00pm 16.4 14.2 3.5 42 5.9 SW 4 7 2 4 1017.1 1017.0 0.0
29/03:30pm 16.6 13.8 3.3 41 6.1 SW 7 11 4 6 1016.8 1016.7 0.0
29/03:00pm 16.9 14.3 3.2 40 6.3 SW 6 11 3 6 1016.6 1016.5 0.0
29/02:30pm 17.4 14.2 3.0 38 6.6 SW 9 17 5 9 1016.5 1016.4 0.0
29/02:00pm 17.5 14.3 3.0 38 6.7 WSW 9 19 5 10 1016.4 1016.3 0.0
29/01:30pm 17.3 14.1 2.9 38 6.6 WSW 9 17 5 9 1016.4 1016.3 0.0
29/01:00pm 17.5 14.9 4.1 41 6.3 W 7 15 4 8 1016.5 1016.4 0.0
29/12:30pm 16.8 13.6 3.1 40 6.3 WSW 9 17 5 9 1016.7 1016.6 0.0
29/12:00pm 16.5 13.5 3.9 43 5.8 WSW 9 19 5 10 1016.8 1016.7 0.0
29/11:30am 15.9 12.1 3.7 44 5.6 WSW 13 19 7 10 1017.0 1016.9 0.0
29/11:00am 15.5 11.6 3.3 44 5.5 WSW 13 24 7 13 1017.3 1017.2 0.0
29/10:30am 15.2 11.8 4.0 47 5.2 W 11 19 6 10 1017.5 1017.4 0.0
29/10:00am 15.0 12.6 5.2 52 4.6 WNW 7 17 4 9 1017.6 1017.5 0.0
29/09:30am 14.1 11.7 5.2 55 4.2 WNW 7 19 4 10 1017.4 1017.3 0.0
29/09:00am 13.0 10.1 4.9 58 3.7 WNW 9 17 5 9 1017.2 1017.1 0.6
29/08:30am 12.2 9.0 4.9 61 3.3 WNW 11 19 6 10 1016.9 1016.8 0.6
29/08:00am 11.1 8.2 4.8 65 2.9 WNW 9 20 5 11 1016.7 1016.6 0.6
29/07:30am 10.2 7.4 5.2 71 2.3 WNW 9 15 5 8 1016.4 1016.3 0.6
29/07:00am 9.7 6.8 4.9 72 2.2 WNW 9 19 5 10 1015.9 1015.8 0.6
29/06:30am 9.6 6.7 4.6 71 2.2 WNW 9 20 5 11 1015.6 1015.5 0.6
29/06:00am 9.9 6.6 4.7 70 2.3 WNW 11 20 6 11 1015.1 1015.0 0.6
29/05:30am 10.2 7.4 5.0 70 2.4 WNW 9 20 5 11 1014.7 1014.6 0.6
29/05:00am 10.3 7.1 5.1 70 2.4 WNW 11 22 6 12 1014.4 1014.3 0.6
29/04:30am 10.4 7.2 5.0 69 2.4 WNW 11 19 6 10 1014.1 1014.0 0.6
29/04:00am 10.5 7.3 4.9 68 2.5 WNW 11 20 6 11 1014.0 1013.9 0.6
29/03:30am 10.5 7.6 4.9 68 2.5 WNW 9 17 5 9 1013.6 1013.5 0.6
29/03:00am 10.4 7.1 4.8 68 2.5 WNW 11 19 6 10 1013.5 1013.4 0.6
29/02:30am 10.7 7.9 5.0 68 2.6 WNW 9 15 5 8 1013.4 1013.3 0.6
29/02:00am 10.8 8.0 5.1 68 2.6 WNW 9 19 5 10 1013.5 1013.4 0.6
29/01:30am 10.8 7.9 4.9 67 2.7 WNW 9 15 5 8 1013.4 1013.3 0.6
29/01:00am 11.3 8.1 5.0 65 2.9 W 11 22 6 12 1013.1 1013.0 0.6
29/12:30am 11.3 8.5 5.0 65 2.9 WNW 9 19 5 10 1013.0 1012.9 0.6
29/12:00am 11.4 8.1 4.8 64 3.0 WNW 11 22 6 12 1012.7 1012.6 0.6
 
Date/Time
EST
Temp
°C
App
Temp
°C
Dew
Point
Rel
Hum
%
Delta-T
°C
Wind Press
QNH
hPa
Press
MSL
hPa
Rain
since 9 am
mm
Dir
 
Spd
km/h
Gust
km/h
Spd
kts
Gust
kts
28/11:30pm 11.4 8.1 4.8 64 3.0 WNW 11 20 6 11 1012.6 1012.5 0.6
28/11:00pm 11.5 8.7 5.2 65 2.9 WNW 9 19 5 10 1012.4 1012.3 0.6
28/10:30pm 11.5 8.7 5.2 65 2.9 WNW 9 17 5 9 1012.3 1012.2 0.6
28/10:00pm 11.6 9.1 5.0 64 3.0 WNW 7 17 4 9 1012.0 1011.9 0.6
28/09:30pm 11.6 8.7 4.8 63 3.1 WNW 9 15 5 8 1011.9 1011.8 0.6
28/09:00pm 11.7 9.2 4.7 62 3.2 WNW 7 15 4 8 1011.5 1011.4 0.6
28/08:30pm 11.9 9.4 4.6 61 3.3 WNW 7 15 4 8 1011.1 1011.0 0.6
28/08:00pm 12.2 9.6 4.4 59 3.5 WNW 7 13 4 7 1011.1 1011.0 0.6
28/07:30pm 12.5 10.1 4.5 58 3.6 WNW 6 11 3 6 1010.5 1010.4 0.6
28/07:00pm 13.1 10.1 4.3 55 4.0 W 9 19 5 10 1009.9 1009.8 0.6
28/06:30pm 13.7 10.8 4.8 55 4.1 WNW 9 19 5 10 1009.5 1009.4 0.6
28/06:00pm 13.3 10.9 5.2 58 3.8 WNW 7 13 4 7 1009.0 1009.0 0.6
28/05:30pm 13.4 11.2 5.3 58 3.8 WNW 6 11 3 6 1008.3 1008.3 0.6
28/05:00pm 13.9 11.5 5.3 56 4.0 WNW 7 17 4 9 1007.9 1007.9 0.6
28/04:30pm 14.4 12.2 6.0 57 4.0 WNW 7 17 4 9 1007.3 1007.3 0.6
28/04:00pm 14.7 12.6 6.8 59 3.9 W 7 15 4 8 1006.9 1006.9 0.6
28/03:30pm 14.5 12.4 6.8 60 3.7 W 7 13 4 7 1006.7 1006.7 0.6
28/03:00pm 14.6 11.4 6.7 59 3.8 WSW 13 26 7 14 1006.2 1006.2 0.6
28/02:30pm 15.5 13.1 6.8 56 4.3 SW 9 17 5 9 1005.6 1005.6 0.6
28/02:00pm 15.9 13.2 5.8 51 4.9 WSW 9 17 5 9 1005.4 1005.4 0.6
28/01:30pm 15.6 12.6 5.8 52 4.7 WSW 11 20 6 11 1005.3 1005.3 0.6
28/01:00pm 15.9 12.7 6.9 55 4.4 W 13 24 7 13 1005.5 1005.5 0.6
28/12:30pm 15.9 14.2 8.2 60 3.9 WNW 7 19 4 10 1005.5 1005.5 0.6
28/12:00pm 14.4 13.1 7.7 64 3.3 W 4 9 2 5 1006.0 1006.0 0.6
28/11:30am 14.5 12.9 8.9 69 2.8 NW 7 15 4 8 1006.6 1006.6 0.6
28/11:00am 13.7 13.1 10.5 81 1.7 WNW 4 9 2 5 1006.8 1006.8 0.6
28/10:30am 12.0 10.5 9.0 82 1.5 WNW 7 13 4 7 1007.1 1007.1 0.6
28/10:00am 11.9 10.3 8.9 82 1.5 W 7 11 4 6 1007.5 1007.5 0.6
28/09:30am 12.8 10.5 7.5 70 2.6 WNW 9 20 5 11 1007.6 1007.6 0.0
28/09:00am 13.2 11.1 6.8 65 3.1 WNW 7 15 4 8 1007.8 1007.8 0.0
28/08:30am 13.9 12.1 7.2 64 3.3 NW 6 13 3 7 1007.6 1007.6 0.0
28/08:00am 13.2 11.0 7.9 70 2.6 WNW 9 17 5 9 1007.4 1007.4 0.0
28/07:30am 11.9 9.9 7.2 73 2.3 WNW 7 15 4 8 1007.3 1007.3 0.0
28/07:00am 11.0 8.8 6.0 71 2.3 WNW 7 13 4 7 1007.4 1007.4 0.0
28/06:30am 11.0 8.6 5.1 67 2.7 WNW 7 11 4 6 1007.4 1007.4 0.0
28/06:00am 11.1 8.7 5.4 68 2.6 WNW 7 13 4 7 1007.3 1007.3 0.0
28/05:30am 11.3 9.0 5.6 68 2.6 NW 7 13 4 7 1007.4 1007.4 0.0
28/05:00am 11.4 8.6 5.3 66 2.8 WNW 9 15 5 8 1007.3 1007.3 0.0
28/04:30am 11.4 9.5 6.5 72 2.3 WNW 6 11 3 6 1007.3 1007.3 0.0
28/04:00am 11.1 8.7 5.2 67 2.7 WNW 7 11 4 6 1007.2 1007.2 0.0
28/03:30am 10.9 8.6 4.6 65 2.8 WNW 6 11 3 6 1007.3 1007.3 0.0
28/03:00am 11.0 9.1 4.7 65 2.9 WNW 4 7 2 4 1007.6 1007.6 0.0
28/02:30am 11.1 8.8 4.6 64 2.9 NW 6 7 3 4 1008.0 1008.0 0.0
28/02:00am 11.5 9.6 4.7 63 3.1 WNW 4 9 2 5 1008.1 1008.1 0.0
28/01:30am 11.7 9.3 4.2 60 3.4 WNW 6 9 3 5 1008.1 1008.1 0.0
28/01:00am 11.8 9.4 4.3 60 3.4 WNW 6 13 3 7 1008.1 1008.1 0.0
28/12:30am 12.0 9.4 4.2 59 3.5 WNW 7 15 4 8 1007.9 1007.9 0.0
28/12:00am 12.2 9.2 3.9 57 3.7 WNW 9 19 5 10 1007.9 1007.9 0.0
 
Date/Time
EST
Temp
°C
App
Temp
°C
Dew
Point
Rel
Hum
%
Delta-T
°C
Wind Press
QNH
hPa
Press
MSL
hPa
Rain
since 9 am
mm
Dir
 
Spd
km/h
Gust
km/h
Spd
kts
Gust
kts
27/11:30pm 12.6 9.5 3.8 55 4.0 WNW 9 22 5 12 1008.1 1008.1 0.0
27/11:00pm 12.9 9.8 3.6 53 4.2 WNW 9 24 5 13 1007.8 1007.8 0.0
27/10:30pm 13.1 9.6 3.5 52 4.3 WNW 11 19 6 10 1007.5 1007.5 0.0
27/10:00pm 13.0 9.4 2.8 50 4.5 WNW 11 24 6 13 1007.6 1007.6 0.0
27/09:30pm 13.2 9.9 2.4 48 4.7 WNW 9 20 5 11 1007.5 1007.5 0.0
27/09:00pm 13.4 10.1 2.3 47 4.9 WNW 9 20 5 11 1007.4 1007.4 0.0
27/08:30pm 13.7 9.9 2.0 45 5.1 WNW 11 20 6 11 1006.9 1006.9 0.0
27/08:00pm 13.9 10.1 1.9 44 5.2 WNW 11 24 6 13 1006.6 1006.6 0.0
27/07:30pm 14.1 10.3 1.7 43 5.4 WNW 11 26 6 14 1006.3 1006.3 0.0
27/07:00pm 14.7 9.7 1.6 41 5.7 WNW 17 33 9 18 1005.7 1005.7 0.0
27/06:30pm 14.6 10.4 1.8 42 5.6 WNW 13 28 7 15 1005.3 1005.3 0.0
27/06:00pm 15.0 10.4 1.5 40 5.9 WNW 15 32 8 17 1004.8 1004.8 0.0
27/05:30pm 15.4 11.2 1.5 39 6.1 WNW 13 26 7 14 1004.4 1004.4 0.0
27/05:00pm 15.9 11.2 1.2 37 6.5 WNW 15 33 8 18 1003.5 1003.5 0.0
27/04:30pm 16.4 12.1 1.3 36 6.6 WNW 13 22 7 12 1003.2 1003.2 0.0
27/04:00pm 17.0 11.9 1.0 34 7.1 W 17 33 9 18 1002.8 1002.8 0.0
27/03:30pm 17.5 12.9 1.5 34 7.1 WNW 15 32 8 17 1002.5 1002.5 0.0
27/03:00pm 17.9 13.2 1.0 32 7.5 W 15 37 8 20 1001.9 1001.9 0.0

Other Formats:

Comma delimited format used in spreadsheet applications
http://www.bom.gov.au/fwo/IDN60801/IDN60801.95770.axf

JavaScript Object Notation format (JSON) in row-major order
http://www.bom.gov.au/fwo/IDN60801/IDN60801.95770.json